createdAt,value
2023-05-14T00:00:24.026Z,16.52
2023-05-14T00:02:51.176Z,16.61
2023-05-14T00:05:18.331Z,16.48
2023-05-14T00:07:44.797Z,16.10
2023-05-14T00:10:11.325Z,16.69
2023-05-14T00:12:38.193Z,16.69
2023-05-14T00:15:05.498Z,16.90
2023-05-14T00:17:32.449Z,16.64
2023-05-14T00:19:59.507Z,16.27
2023-05-14T00:22:26.059Z,16.91
2023-05-14T00:24:52.667Z,16.82
2023-05-14T00:27:19.487Z,16.90
2023-05-14T00:29:45.936Z,16.78
2023-05-14T00:32:12.424Z,16.43
2023-05-14T00:34:39.489Z,16.87
2023-05-14T00:37:06.024Z,16.83
2023-05-14T00:39:33.297Z,16.47
2023-05-14T00:42:00.808Z,16.51
2023-05-14T00:44:27.326Z,16.54
2023-05-14T00:46:54.223Z,16.21
2023-05-14T00:49:21.600Z,16.56
2023-05-14T00:51:48.139Z,16.27
2023-05-14T00:54:16.229Z,16.39
2023-05-14T00:56:47.113Z,16.74
2023-05-14T00:59:13.982Z,16.67
2023-05-14T01:01:41.141Z,16.52
2023-05-14T01:04:08.402Z,16.36
2023-05-14T01:07:19.329Z,16.58
2023-05-14T01:09:53.355Z,16.46
2023-05-14T01:12:34.293Z,16.50
2023-05-14T01:15:06.710Z,16.57
2023-05-14T01:17:37.206Z,16.48
2023-05-14T01:20:04.319Z,16.74
2023-05-14T01:22:31.128Z,16.39
2023-05-14T01:24:57.829Z,16.47
2023-05-14T01:27:51.697Z,16.60
2023-05-14T01:30:23.568Z,16.49
2023-05-14T01:32:52.491Z,16.59
2023-05-14T01:35:20.735Z,16.31
2023-05-14T01:37:48.954Z,16.49
2023-05-14T01:40:15.674Z,16.23
2023-05-14T01:42:43.262Z,16.44
2023-05-14T01:45:10.439Z,16.52
2023-05-14T01:47:36.994Z,16.33
2023-05-14T01:50:04.122Z,16.51
2023-05-14T01:52:30.663Z,16.51
2023-05-14T01:54:58.388Z,16.42
2023-05-14T01:57:25.096Z,15.88
2023-05-14T01:59:51.544Z,16.11
2023-05-14T02:02:18.645Z,16.06
2023-05-14T02:04:45.636Z,16.27
2023-05-14T02:07:12.503Z,16.07
2023-05-14T02:09:40.041Z,15.98
2023-05-14T02:12:08.075Z,16.19
2023-05-14T02:14:34.714Z,16.16
2023-05-14T02:17:01.188Z,16.12
2023-05-14T02:19:27.649Z,16.30
2023-05-14T02:21:54.336Z,16.20
2023-05-14T02:24:20.816Z,16.29
2023-05-14T02:26:47.947Z,16.24
2023-05-14T02:29:14.715Z,15.88
2023-05-14T02:31:41.204Z,16.03
2023-05-14T02:34:08.004Z,15.96
2023-05-14T02:36:34.568Z,15.59
2023-05-14T02:39:01.130Z,15.51
2023-05-14T02:41:27.719Z,16.04
2023-05-14T02:43:54.305Z,15.92
2023-05-14T02:46:21.296Z,15.70
2023-05-14T02:48:47.870Z,15.74
2023-05-14T02:51:14.440Z,15.49
2023-05-14T02:53:41.279Z,15.72
2023-05-14T02:56:08.114Z,15.89
2023-05-14T02:58:34.938Z,15.86
2023-05-14T03:01:01.432Z,15.80
2023-05-14T03:03:29.938Z,15.69
2023-05-14T03:05:57.340Z,15.76
2023-05-14T03:08:23.903Z,15.52
2023-05-14T03:10:50.794Z,15.73
2023-05-14T03:13:19.966Z,15.74
2023-05-14T03:15:47.136Z,15.62
2023-05-14T03:18:15.068Z,15.64
2023-05-14T03:20:41.915Z,15.54
2023-05-14T03:23:08.478Z,15.56
2023-05-14T03:25:35.430Z,15.58
2023-05-14T03:28:03.473Z,15.67
2023-05-14T03:30:30.105Z,15.33
2023-05-14T03:32:57.076Z,15.05
2023-05-14T03:35:23.560Z,15.31
2023-05-14T03:37:50.862Z,15.39
2023-05-14T03:40:17.979Z,15.41
2023-05-14T03:42:44.476Z,15.21
2023-05-14T03:45:11.015Z,15.35
2023-05-14T03:47:37.930Z,15.54
2023-05-14T03:50:04.761Z,15.52
2023-05-14T03:52:31.179Z,15.56
2023-05-14T03:54:57.814Z,15.55
2023-05-14T03:57:24.349Z,15.36
2023-05-14T03:59:51.046Z,14.85
2023-05-14T04:02:17.819Z,15.54
2023-05-14T04:04:44.644Z,15.51
2023-05-14T04:07:11.594Z,15.20
2023-05-14T04:09:38.052Z,15.26
2023-05-14T04:12:05.027Z,15.01
2023-05-14T04:14:31.853Z,14.81
2023-05-14T04:17:00.118Z,15.03
2023-05-14T04:19:26.784Z,15.18
2023-05-14T04:21:53.889Z,14.95
2023-05-14T04:24:20.390Z,15.40
2023-05-14T04:26:46.823Z,15.46
2023-05-14T04:29:13.737Z,15.52
2023-05-14T04:31:40.337Z,15.50
2023-05-14T04:34:07.081Z,15.44
2023-05-14T04:36:33.547Z,15.70
2023-05-14T04:38:59.992Z,15.85
2023-05-14T04:41:26.910Z,15.73
2023-05-14T04:43:55.926Z,15.89
2023-05-14T04:46:22.527Z,15.72
2023-05-14T04:48:49.274Z,16.01
2023-05-14T04:51:15.816Z,15.98
2023-05-14T04:53:42.632Z,15.77
2023-05-14T04:56:09.932Z,16.10
2023-05-14T04:58:36.350Z,15.92
2023-05-14T05:01:05.193Z,15.96
2023-05-14T05:03:31.992Z,16.07
2023-05-14T05:05:58.658Z,16.04
2023-05-14T05:08:26.347Z,16.45
2023-05-14T05:10:52.833Z,16.55
2023-05-14T05:13:19.667Z,16.67
2023-05-14T05:15:46.632Z,16.89
2023-05-14T05:18:13.138Z,16.79
2023-05-14T05:20:39.630Z,16.61
2023-05-14T05:23:07.207Z,17.10
2023-05-14T05:25:33.715Z,16.90
2023-05-14T05:28:00.252Z,16.95
2023-05-14T05:30:27.277Z,17.13
2023-05-14T05:32:54.167Z,17.39
2023-05-14T05:35:20.696Z,17.86
2023-05-14T05:37:47.188Z,17.76
2023-05-14T05:40:14.422Z,18.13
2023-05-14T05:42:41.586Z,18.22
2023-05-14T05:45:08.911Z,17.74
2023-05-14T05:47:35.475Z,17.87
2023-05-14T05:50:02.046Z,18.16
2023-05-14T05:52:29.163Z,18.06
2023-05-14T05:54:55.674Z,17.89
2023-05-14T05:57:25.678Z,18.03
2023-05-14T05:59:53.232Z,17.96
2023-05-14T06:02:19.986Z,17.93
2023-05-14T06:04:46.793Z,17.70
2023-05-14T06:07:13.815Z,18.04
2023-05-14T06:09:40.265Z,18.12
2023-05-14T06:12:07.112Z,18.10
2023-05-14T06:14:33.967Z,17.63
2023-05-14T06:17:00.871Z,17.55
2023-05-14T06:19:27.999Z,17.59
2023-05-14T06:21:54.744Z,17.65
2023-05-14T06:24:21.282Z,17.65
2023-05-14T06:26:49.286Z,17.80
2023-05-14T06:29:16.101Z,18.08
2023-05-14T06:31:42.667Z,18.27
2023-05-14T06:34:09.570Z,18.21
2023-05-14T06:36:36.072Z,18.12
2023-05-14T06:39:03.526Z,18.34
2023-05-14T06:41:30.374Z,18.28
2023-05-14T06:43:56.889Z,18.06
2023-05-14T06:46:23.498Z,18.58
2023-05-14T06:48:50.620Z,18.26
2023-05-14T06:51:17.209Z,18.26
2023-05-14T06:53:43.689Z,18.21
2023-05-14T06:56:10.915Z,18.69
2023-05-14T06:58:37.418Z,18.63
2023-05-14T07:01:04.182Z,18.88
2023-05-14T07:03:31.526Z,18.72
2023-05-14T07:05:58.072Z,18.39
2023-05-14T07:08:24.894Z,18.55
2023-05-14T07:10:52.710Z,18.70
2023-05-14T07:13:19.189Z,19.22
2023-05-14T07:15:45.748Z,19.57
2023-05-14T07:18:12.534Z,19.68
2023-05-14T07:20:39.353Z,19.65
2023-05-14T07:23:06.114Z,19.38
2023-05-14T07:25:32.798Z,20.02
2023-05-14T07:27:59.307Z,19.88
2023-05-14T07:30:26.314Z,20.50
2023-05-14T07:32:53.061Z,20.25
2023-05-14T07:35:20.260Z,20.18
2023-05-14T07:37:47.125Z,20.37
2023-05-14T07:40:13.660Z,21.08
2023-05-14T07:42:40.330Z,20.93
2023-05-14T07:45:08.710Z,21.30
2023-05-14T07:47:35.469Z,21.11
2023-05-14T07:50:02.355Z,20.87
2023-05-14T07:52:28.964Z,21.22
2023-05-14T07:54:55.580Z,21.24
2023-05-14T07:57:22.962Z,21.25
2023-05-14T07:59:49.614Z,21.68
2023-05-14T08:02:16.960Z,21.18
2023-05-14T08:04:44.942Z,21.25
2023-05-14T08:07:11.591Z,21.10
2023-05-14T08:09:38.365Z,21.08
2023-05-14T08:12:07.435Z,21.31
2023-05-14T08:14:34.353Z,21.67
2023-05-14T08:17:01.138Z,21.97
2023-05-14T08:19:27.846Z,21.76
2023-05-14T08:21:54.521Z,22.60
2023-05-14T08:24:21.492Z,22.81
2023-05-14T08:26:48.163Z,23.29
2023-05-14T08:29:16.604Z,23.32
2023-05-14T08:31:44.288Z,23.67
2023-05-14T08:34:10.931Z,23.65
2023-05-14T08:36:39.051Z,24.11
2023-05-14T08:39:07.684Z,24.26
2023-05-14T08:41:34.756Z,24.27
2023-05-14T08:44:22.692Z,24.78
2023-05-14T08:46:49.888Z,25.82
2023-05-14T08:49:35.679Z,26.14
2023-05-14T08:52:02.487Z,26.68
2023-05-14T08:54:32.364Z,26.48
2023-05-14T08:56:59.595Z,27.83
2023-05-14T08:59:26.291Z,27.44
2023-05-14T09:01:54.689Z,27.32
2023-05-14T09:04:23.819Z,27.48
2023-05-14T09:06:56.094Z,27.09
2023-05-14T09:09:23.611Z,28.35
2023-05-14T09:11:53.643Z,29.09
2023-05-14T09:14:22.027Z,29.60
2023-05-14T09:16:50.557Z,30.65
2023-05-14T09:19:21.737Z,34.16
2023-05-14T09:21:49.423Z,38.87
2023-05-14T09:24:23.897Z,41.58
2023-05-14T09:26:54.600Z,45.30
2023-05-14T09:29:21.071Z,47.12
2023-05-14T09:31:48.966Z,46.42
2023-05-14T09:34:24.446Z,49.02
2023-05-14T09:36:55.483Z,50.09
2023-05-14T09:39:23.881Z,51.97
2023-05-14T09:41:51.843Z,50.29
2023-05-14T09:44:19.732Z,53.06
2023-05-14T09:46:47.012Z,53.70
2023-05-14T09:49:13.729Z,53.57
2023-05-14T09:51:41.227Z,52.22
2023-05-14T09:54:08.185Z,52.30
2023-05-14T09:56:36.209Z,53.39
2023-05-14T09:59:03.685Z,53.43
2023-05-14T10:01:31.282Z,53.55
2023-05-14T10:03:59.547Z,54.93
2023-05-14T10:06:28.790Z,54.98
2023-05-14T10:09:01.735Z,51.45
2023-05-14T10:11:31.430Z,51.96
2023-05-14T10:14:33.972Z,50.05
2023-05-14T10:17:01.837Z,51.28
2023-05-14T10:19:33.428Z,50.11
2023-05-14T10:22:04.479Z,48.72
2023-05-14T10:24:31.573Z,52.40
2023-05-14T10:26:58.766Z,49.80
2023-05-14T10:29:36.037Z,50.35
2023-05-14T10:32:07.272Z,52.32
2023-05-14T10:34:44.024Z,50.64
2023-05-14T10:37:12.899Z,52.15
2023-05-14T10:39:51.528Z,44.60
2023-05-14T10:42:23.318Z,48.06
2023-05-14T10:44:58.471Z,44.53
2023-05-14T10:47:28.866Z,45.87
2023-05-14T10:49:58.294Z,46.05
2023-05-14T10:52:26.412Z,48.07
2023-05-14T10:54:59.222Z,46.91
2023-05-14T10:57:29.750Z,49.98
2023-05-14T10:59:58.395Z,49.88
2023-05-14T11:02:27.934Z,51.16
2023-05-14T11:05:09.161Z,48.44
2023-05-14T11:07:41.689Z,48.05
2023-05-14T11:10:10.089Z,46.20
2023-05-14T11:12:39.132Z,46.81
2023-05-14T11:15:09.246Z,45.84
2023-05-14T11:17:36.938Z,48.37
2023-05-14T11:20:05.505Z,48.28
2023-05-14T11:22:32.252Z,45.38
2023-05-14T11:24:58.910Z,44.45
2023-05-14T11:27:26.301Z,47.74
2023-05-14T11:29:53.110Z,47.92
2023-05-14T11:32:20.244Z,46.75
2023-05-14T11:34:47.340Z,47.61
2023-05-14T11:37:15.242Z,47.12
2023-05-14T11:39:49.761Z,44.92
2023-05-14T11:42:18.641Z,47.65
2023-05-14T11:44:49.924Z,49.26
2023-05-14T11:47:18.206Z,50.55
2023-05-14T11:49:45.101Z,49.84
2023-05-14T11:52:15.935Z,50.23
2023-05-14T11:54:43.938Z,50.04
2023-05-14T11:57:12.921Z,51.40
2023-05-14T11:59:40.343Z,52.69
2023-05-14T12:02:12.003Z,51.49
2023-05-14T12:04:38.796Z,49.16
2023-05-14T12:07:10.279Z,44.95
2023-05-14T12:09:40.650Z,44.88
2023-05-14T12:12:10.017Z,43.93
2023-05-14T12:14:42.492Z,40.59
2023-05-14T12:17:19.457Z,37.90
2023-05-14T12:19:48.296Z,34.54
2023-05-14T12:22:17.200Z,31.76
2023-05-14T12:24:44.478Z,30.47
2023-05-14T12:27:11.972Z,30.31
2023-05-14T12:29:39.022Z,29.42
2023-05-14T12:32:09.839Z,29.45
2023-05-14T12:34:37.697Z,29.24
2023-05-14T12:37:05.511Z,29.09
2023-05-14T12:39:34.112Z,28.61
2023-05-14T12:42:01.312Z,29.02
2023-05-14T12:44:28.248Z,28.36
2023-05-14T12:46:55.149Z,29.18
2023-05-14T12:49:21.654Z,28.91
2023-05-14T12:51:48.147Z,28.00
2023-05-14T12:54:15.967Z,27.97
2023-05-14T12:56:42.862Z,27.85
2023-05-14T12:59:10.218Z,27.59
2023-05-14T13:01:38.247Z,29.00
2023-05-14T13:04:05.626Z,29.23
2023-05-14T13:06:32.744Z,28.66
2023-05-14T13:09:01.720Z,29.07
2023-05-14T13:11:30.310Z,28.38
2023-05-14T13:13:57.593Z,29.46
2023-05-14T13:16:25.433Z,30.15
2023-05-14T13:18:52.405Z,29.99
2023-05-14T13:21:19.552Z,30.44
2023-05-14T13:23:47.172Z,29.91
2023-05-14T13:26:14.228Z,29.40
2023-05-14T13:28:41.018Z,29.91
2023-05-14T13:31:12.329Z,28.70
2023-05-14T13:33:41.570Z,28.98
2023-05-14T13:36:08.617Z,30.01
2023-05-14T13:38:35.767Z,29.40
2023-05-14T13:41:02.732Z,29.51
2023-05-14T13:43:30.796Z,29.30
2023-05-14T13:45:57.612Z,28.77
2023-05-14T13:48:25.734Z,27.94
2023-05-14T13:50:52.584Z,27.55
2023-05-14T13:53:23.136Z,28.54
2023-05-14T13:55:50.424Z,28.15
2023-05-14T13:58:17.243Z,28.21
2023-05-14T14:00:43.702Z,27.97
2023-05-14T14:03:10.325Z,27.99
2023-05-14T14:05:37.599Z,28.38
2023-05-14T14:08:13.082Z,28.54
2023-05-14T14:10:48.369Z,28.80
2023-05-14T14:13:15.419Z,28.32
2023-05-14T14:15:42.636Z,28.66
2023-05-14T14:18:09.131Z,26.16
2023-05-14T14:20:36.230Z,27.38
2023-05-14T14:23:02.769Z,25.81
2023-05-14T14:25:29.374Z,26.15
2023-05-14T14:27:55.959Z,26.40
2023-05-14T14:30:22.464Z,26.55
2023-05-14T14:32:49.605Z,26.26
2023-05-14T14:35:17.812Z,26.58
2023-05-14T14:37:48.957Z,27.34
2023-05-14T14:40:16.684Z,28.38
2023-05-14T14:42:43.584Z,28.44
2023-05-14T14:45:10.495Z,28.35
2023-05-14T14:47:37.594Z,28.21
2023-05-14T14:50:04.807Z,28.15
2023-05-14T14:52:31.683Z,27.44
2023-05-14T14:54:58.857Z,27.46
2023-05-14T14:57:26.682Z,27.43
2023-05-14T14:59:53.718Z,27.18
2023-05-14T15:02:20.308Z,27.07
2023-05-14T15:04:46.806Z,27.27
2023-05-14T15:07:15.922Z,26.95
2023-05-14T15:09:42.836Z,27.38
2023-05-14T15:12:10.755Z,26.50
2023-05-14T15:14:37.962Z,26.62
2023-05-14T15:17:04.681Z,25.71
2023-05-14T15:19:32.254Z,26.07
2023-05-14T15:21:59.185Z,25.99
2023-05-14T15:24:26.210Z,25.77
2023-05-14T15:26:53.556Z,26.03
2023-05-14T15:29:20.605Z,26.53
2023-05-14T15:31:47.382Z,25.96
2023-05-14T15:34:13.986Z,26.21
2023-05-14T15:36:40.990Z,25.80
2023-05-14T15:39:10.153Z,25.74
2023-05-14T15:41:36.669Z,25.87
2023-05-14T15:44:03.169Z,25.59
2023-05-14T15:46:30.470Z,26.26
2023-05-14T15:48:57.894Z,26.03
2023-05-14T15:51:24.391Z,25.62
2023-05-14T15:53:53.102Z,26.20
2023-05-14T15:56:20.781Z,26.34
2023-05-14T15:58:48.751Z,26.56
2023-05-14T16:01:15.304Z,26.60
2023-05-14T16:03:42.210Z,26.49
2023-05-14T16:06:08.852Z,26.46
2023-05-14T16:08:35.459Z,26.79
2023-05-14T16:11:02.480Z,26.60
2023-05-14T16:13:28.955Z,26.69
2023-05-14T16:15:55.631Z,26.91
2023-05-14T16:18:22.219Z,27.21
2023-05-14T16:20:48.814Z,27.13
2023-05-14T16:23:15.596Z,26.58
2023-05-14T16:25:42.142Z,26.17
2023-05-14T16:28:08.799Z,26.49
2023-05-14T16:30:35.661Z,26.08
2023-05-14T16:33:02.229Z,25.90
2023-05-14T16:35:29.094Z,25.99
2023-05-14T16:37:56.681Z,25.79
2023-05-14T16:40:24.093Z,25.44
2023-05-14T16:42:51.674Z,25.18
2023-05-14T16:45:18.920Z,25.34
2023-05-14T16:47:45.583Z,24.72
2023-05-14T16:50:12.562Z,24.94
2023-05-14T16:52:39.073Z,25.31
2023-05-14T16:55:06.604Z,25.40
2023-05-14T16:57:34.335Z,25.11
2023-05-14T17:00:00.815Z,25.53
2023-05-14T17:02:27.388Z,25.94
2023-05-14T17:04:55.238Z,26.01
2023-05-14T17:07:21.819Z,25.39
2023-05-14T17:09:48.690Z,25.65
2023-05-14T17:12:15.327Z,25.55
2023-05-14T17:14:41.866Z,25.34
2023-05-14T17:17:08.724Z,24.51
2023-05-14T17:19:35.192Z,24.32
2023-05-14T17:22:03.938Z,23.92
2023-05-14T17:24:30.531Z,23.72
2023-05-14T17:26:57.093Z,23.42
2023-05-14T17:29:24.055Z,23.54
2023-05-14T17:31:51.012Z,23.55
2023-05-14T17:34:17.907Z,23.88
2023-05-14T17:36:44.622Z,23.25
2023-05-14T17:39:11.080Z,23.16
2023-05-14T17:41:37.543Z,23.40
2023-05-14T17:44:04.900Z,23.35
2023-05-14T17:46:31.485Z,23.52
2023-05-14T17:48:58.344Z,23.27
2023-05-14T17:51:25.209Z,23.58
2023-05-14T17:53:51.659Z,23.07
2023-05-14T17:56:18.700Z,23.48
2023-05-14T17:58:46.134Z,23.63
2023-05-14T18:01:12.953Z,23.62
2023-05-14T18:03:39.635Z,23.46
2023-05-14T18:06:06.635Z,23.70
2023-05-14T18:08:33.159Z,23.81
2023-05-14T18:11:00.768Z,23.82
2023-05-14T18:13:27.273Z,24.09
2023-05-14T18:15:54.324Z,23.76
2023-05-14T18:18:21.713Z,24.13
2023-05-14T18:20:49.344Z,24.18
2023-05-14T18:23:16.173Z,23.92
2023-05-14T18:25:42.967Z,23.44
2023-05-14T18:28:09.669Z,23.60
2023-05-14T18:30:36.529Z,23.40
2023-05-14T18:33:03.372Z,22.50
2023-05-14T18:35:30.858Z,22.46
2023-05-14T18:37:57.305Z,22.32
2023-05-14T18:40:24.028Z,22.38
2023-05-14T18:42:50.794Z,22.04
2023-05-14T18:45:17.384Z,22.38
2023-05-14T18:47:44.005Z,22.39
2023-05-14T18:50:11.132Z,22.51
2023-05-14T18:52:38.150Z,22.72
2023-05-14T18:55:05.134Z,22.65
2023-05-14T18:57:34.879Z,22.78
2023-05-14T19:00:01.985Z,22.81
2023-05-14T19:02:28.687Z,22.72
2023-05-14T19:04:55.565Z,22.43
2023-05-14T19:07:22.208Z,22.23
2023-05-14T19:09:49.134Z,22.00
2023-05-14T19:12:16.083Z,21.98
2023-05-14T19:14:42.675Z,22.15
2023-05-14T19:17:09.448Z,22.04
2023-05-14T19:19:36.453Z,22.05
2023-05-14T19:22:03.266Z,22.02
2023-05-14T19:24:30.188Z,22.14
2023-05-14T19:26:56.722Z,22.14
2023-05-14T19:29:23.287Z,22.02
2023-05-14T19:31:49.989Z,21.93
2023-05-14T19:34:16.766Z,22.03
2023-05-14T19:36:43.218Z,21.81
2023-05-14T19:39:09.789Z,21.95
2023-05-14T19:41:36.548Z,21.93
2023-05-14T19:44:03.632Z,21.93
2023-05-14T19:46:30.297Z,21.53
2023-05-14T19:48:56.766Z,21.46
2023-05-14T19:51:23.244Z,21.65
2023-05-14T19:53:49.996Z,21.26
2023-05-14T19:56:16.518Z,21.41
2023-05-14T19:58:44.186Z,21.26
2023-05-14T20:01:11.941Z,21.20
2023-05-14T20:03:38.598Z,21.19
2023-05-14T20:06:06.577Z,21.05
2023-05-14T20:08:33.322Z,20.16
2023-05-14T20:10:59.816Z,20.31
2023-05-14T20:13:27.113Z,20.40
2023-05-14T20:15:55.134Z,20.56
2023-05-14T20:18:22.116Z,20.37
2023-05-14T20:20:49.017Z,20.77
2023-05-14T20:23:15.673Z,20.77
2023-05-14T20:25:43.053Z,20.53
2023-05-14T20:28:10.202Z,20.38
2023-05-14T20:30:36.820Z,20.44
2023-05-14T20:33:03.936Z,20.34
2023-05-14T20:35:31.067Z,20.16
2023-05-14T20:37:57.745Z,20.60
2023-05-14T20:40:24.755Z,20.55
2023-05-14T20:42:51.494Z,20.49
2023-05-14T20:45:18.421Z,20.47
2023-05-14T20:47:44.961Z,20.56
2023-05-14T20:50:11.812Z,20.05
2023-05-14T20:52:38.601Z,20.31
2023-05-14T20:55:07.458Z,20.30
2023-05-14T20:57:35.130Z,20.11
2023-05-14T21:00:02.417Z,20.32
2023-05-14T21:02:28.986Z,20.12
2023-05-14T21:04:55.936Z,20.24
2023-05-14T21:07:22.681Z,19.68
2023-05-14T21:09:52.664Z,19.44
2023-05-14T21:12:19.867Z,20.05
2023-05-14T21:14:46.533Z,20.36
2023-05-14T21:17:13.525Z,20.16
2023-05-14T21:19:40.288Z,20.33
2023-05-14T21:22:07.347Z,20.64
2023-05-14T21:24:34.283Z,20.53
2023-05-14T21:27:00.736Z,20.42
2023-05-14T21:29:27.287Z,20.57
2023-05-14T21:31:54.151Z,20.56
2023-05-14T21:34:20.759Z,20.87
2023-05-14T21:36:47.753Z,20.86
2023-05-14T21:39:14.243Z,20.80
2023-05-14T21:41:41.314Z,20.64
2023-05-14T21:44:07.954Z,20.17
2023-05-14T21:46:34.527Z,20.12
2023-05-14T21:49:01.159Z,20.24
2023-05-14T21:51:28.280Z,19.95
2023-05-14T21:53:54.768Z,19.73
2023-05-14T21:56:22.454Z,20.04
2023-05-14T21:58:49.366Z,19.41
2023-05-14T22:01:15.819Z,19.20
2023-05-14T22:03:42.859Z,19.11
2023-05-14T22:06:09.445Z,18.79
2023-05-14T22:08:36.083Z,18.98
2023-05-14T22:11:02.944Z,18.51
2023-05-14T22:13:29.501Z,18.42
2023-05-14T22:16:05.202Z,18.09
2023-05-14T22:18:39.317Z,18.21
2023-05-14T22:21:06.195Z,18.69
2023-05-14T22:23:32.709Z,18.87
2023-05-14T22:25:59.217Z,18.44
2023-05-14T22:28:26.047Z,18.79
2023-05-14T22:30:52.746Z,18.85
2023-05-14T22:33:19.363Z,18.86
2023-05-14T22:35:46.369Z,18.79
2023-05-14T22:38:13.801Z,19.01
2023-05-14T22:40:40.466Z,19.14
2023-05-14T22:43:07.300Z,18.87
2023-05-14T22:45:33.789Z,18.84
2023-05-14T22:48:00.341Z,18.69
2023-05-14T22:50:27.074Z,18.53
2023-05-14T22:52:53.517Z,18.63
2023-05-14T22:55:20.200Z,18.42
2023-05-14T22:57:46.766Z,18.73
2023-05-14T23:00:14.543Z,18.32
2023-05-14T23:02:41.123Z,17.91
2023-05-14T23:05:08.397Z,18.22
2023-05-14T23:07:35.296Z,18.47
2023-05-14T23:10:01.923Z,18.57
2023-05-14T23:12:28.493Z,18.38
2023-05-14T23:14:55.433Z,18.70
2023-05-14T23:17:22.209Z,18.76
2023-05-14T23:19:48.938Z,18.87
2023-05-14T23:22:15.901Z,18.90
2023-05-14T23:24:42.355Z,18.82
2023-05-14T23:27:08.948Z,18.92
2023-05-14T23:29:36.700Z,18.79
2023-05-14T23:32:03.340Z,18.59
2023-05-14T23:34:29.995Z,18.26
2023-05-14T23:36:57.161Z,18.27
2023-05-14T23:39:23.685Z,17.73
2023-05-14T23:41:50.510Z,17.90
2023-05-14T23:44:16.962Z,18.27
2023-05-14T23:46:43.732Z,17.94
2023-05-14T23:49:11.090Z,18.11
2023-05-14T23:51:37.772Z,17.46
2023-05-14T23:54:04.645Z,17.53
2023-05-14T23:56:31.169Z,17.12
2023-05-14T23:58:57.935Z,17.42
